createdAt,value
2022-11-16T00:03:04.133Z,8.17
2022-11-16T00:05:06.338Z,8.05
2022-11-16T00:07:08.443Z,8.20
2022-11-16T00:09:23.486Z,7.90
2022-11-16T00:11:25.224Z,8.10
2022-11-16T00:13:26.917Z,7.43
2022-11-16T00:15:28.629Z,8.05
2022-11-16T00:17:30.547Z,8.07
2022-11-16T00:19:32.415Z,9.05
2022-11-16T00:21:34.404Z,8.63
2022-11-16T00:23:38.425Z,8.00
2022-11-16T00:25:40.146Z,8.70
2022-11-16T00:27:41.888Z,7.93
2022-11-16T00:29:43.639Z,8.52
2022-11-16T00:31:46.583Z,8.57
2022-11-16T00:33:49.260Z,8.80
2022-11-16T00:37:52.747Z,9.10
2022-11-16T00:39:54.458Z,9.00
2022-11-16T00:41:56.204Z,9.18
2022-11-16T00:43:57.972Z,9.50
2022-11-16T00:45:59.740Z,8.57
2022-11-16T00:48:01.419Z,8.23
2022-11-16T00:50:03.964Z,8.18
2022-11-16T00:52:05.651Z,8.60
2022-11-16T00:54:09.237Z,8.82
2022-11-16T00:56:11.093Z,9.18
2022-11-16T00:58:13.202Z,9.80
2022-11-16T01:00:15.710Z,9.35
2022-11-16T01:02:17.510Z,9.02
2022-11-16T01:04:19.302Z,9.73
2022-11-16T01:06:23.368Z,9.63
2022-11-16T01:08:25.058Z,8.65
2022-11-16T01:10:28.116Z,9.52
2022-11-16T01:12:30.046Z,9.35
2022-11-16T01:14:31.741Z,9.95
2022-11-16T01:16:34.289Z,9.25
2022-11-16T01:18:37.117Z,10.15
2022-11-16T01:20:40.822Z,9.15
2022-11-16T01:22:43.311Z,10.48
2022-11-16T01:24:47.852Z,9.25
2022-11-16T01:26:49.603Z,10.10
2022-11-16T01:28:51.688Z,10.17
2022-11-16T01:30:53.374Z,9.45
2022-11-16T01:32:55.095Z,10.35
2022-11-16T01:34:56.831Z,9.23
2022-11-16T01:36:58.593Z,10.15
2022-11-16T01:39:00.286Z,8.80
2022-11-16T01:41:02.009Z,10.10
2022-11-16T01:43:04.255Z,9.48
2022-11-16T01:45:14.493Z,9.63
2022-11-16T01:47:17.398Z,9.13
2022-11-16T01:49:22.494Z,10.55
2022-11-16T01:51:25.002Z,10.32
2022-11-16T01:53:26.825Z,9.38
2022-11-16T01:55:30.287Z,9.55
2022-11-16T01:57:36.262Z,9.25
2022-11-16T01:59:39.128Z,9.57
2022-11-16T02:01:41.016Z,8.95
2022-11-16T02:03:42.873Z,9.50
2022-11-16T02:06:11.905Z,10.38
2022-11-16T02:08:47.310Z,9.43
2022-11-16T02:11:16.037Z,9.20
2022-11-16T02:13:45.105Z,9.48
2022-11-16T02:15:58.635Z,9.27
2022-11-16T02:18:03.124Z,9.68
2022-11-16T02:20:43.313Z,10.52
2022-11-16T02:23:12.770Z,10.57
2022-11-16T02:25:31.448Z,10.43
2022-11-16T02:27:53.961Z,9.30
2022-11-16T02:29:57.033Z,9.82
2022-11-16T02:32:19.213Z,10.43
2022-11-16T02:34:23.068Z,9.68
2022-11-16T02:36:25.793Z,10.68
2022-11-16T02:40:33.012Z,9.88
2022-11-16T02:42:39.965Z,9.40
2022-11-16T02:44:46.421Z,9.75
2022-11-16T02:46:53.525Z,10.18
2022-11-16T02:49:00.660Z,10.00
2022-11-16T02:51:03.929Z,10.15
2022-11-16T02:53:05.681Z,10.00
2022-11-16T02:55:08.358Z,10.00
2022-11-16T02:59:16.504Z,10.55
2022-11-16T03:01:31.097Z,11.18
2022-11-16T03:03:42.500Z,11.45
2022-11-16T03:05:54.846Z,11.65
2022-11-16T03:08:11.377Z,11.18
2022-11-16T03:10:35.303Z,10.90
2022-11-16T03:12:40.159Z,11.35
2022-11-16T03:14:44.161Z,11.15
2022-11-16T03:16:49.359Z,11.63
2022-11-16T03:18:53.765Z,10.90
2022-11-16T03:21:15.370Z,11.57
2022-11-16T03:23:17.265Z,12.00
2022-11-16T03:25:21.097Z,11.60
2022-11-16T03:27:44.983Z,12.18
2022-11-16T03:29:58.617Z,12.40
2022-11-16T03:32:10.641Z,12.48
2022-11-16T03:34:16.573Z,12.63
2022-11-16T03:36:25.175Z,11.93
2022-11-16T03:38:28.520Z,11.98
2022-11-16T03:40:32.892Z,11.95
2022-11-16T03:42:34.801Z,12.73
2022-11-16T03:44:38.696Z,12.93
2022-11-16T03:46:42.250Z,13.13
2022-11-16T03:48:43.999Z,12.38
2022-11-16T03:50:46.190Z,12.47
2022-11-16T03:52:48.046Z,13.00
2022-11-16T03:54:49.777Z,12.23
2022-11-16T03:56:51.582Z,11.85
2022-11-16T03:58:53.347Z,12.37
2022-11-16T04:00:55.124Z,13.20
2022-11-16T04:02:56.988Z,12.87
2022-11-16T04:05:17.560Z,12.10
2022-11-16T04:07:37.672Z,13.02
2022-11-16T04:09:58.066Z,12.90
2022-11-16T04:12:18.490Z,12.73
2022-11-16T04:14:41.293Z,14.02
2022-11-16T04:17:01.759Z,13.80
2022-11-16T04:19:22.025Z,12.93
2022-11-16T04:21:46.260Z,14.10
2022-11-16T04:24:18.720Z,14.18
2022-11-16T04:26:40.427Z,15.30
2022-11-16T04:28:42.480Z,14.65
2022-11-16T04:31:22.910Z,14.52
2022-11-16T04:33:43.461Z,15.77
2022-11-16T04:36:04.141Z,15.32
2022-11-16T04:38:05.828Z,16.33
2022-11-16T04:40:08.892Z,15.23
2022-11-16T04:42:19.848Z,16.40
2022-11-16T04:44:24.776Z,16.25
2022-11-16T04:46:48.090Z,16.75
2022-11-16T04:48:49.786Z,16.20
2022-11-16T04:50:51.492Z,16.27
2022-11-16T04:52:53.184Z,17.65
2022-11-16T04:54:54.857Z,18.00
2022-11-16T04:56:56.577Z,16.27
2022-11-16T04:58:58.257Z,16.88
2022-11-16T05:01:00.401Z,18.23
2022-11-16T05:03:04.714Z,16.98
2022-11-16T05:05:07.094Z,17.35
2022-11-16T05:07:12.232Z,16.98
2022-11-16T05:09:14.483Z,17.42
2022-11-16T05:11:16.220Z,17.33
2022-11-16T05:13:17.957Z,17.97
2022-11-16T05:15:19.885Z,17.05
2022-11-16T05:17:22.994Z,17.73
2022-11-16T05:19:43.284Z,17.42
2022-11-16T05:21:45.071Z,16.27
2022-11-16T05:24:09.941Z,16.37
2022-11-16T05:26:11.723Z,15.98
2022-11-16T05:28:13.422Z,14.73
2022-11-16T05:30:15.337Z,13.65
2022-11-16T05:32:19.044Z,13.65
2022-11-16T05:34:20.723Z,13.00
2022-11-16T05:36:22.554Z,11.82
2022-11-16T05:38:24.229Z,12.33
2022-11-16T05:40:26.000Z,12.48
2022-11-16T05:42:27.737Z,12.00
2022-11-16T05:44:29.498Z,11.80
2022-11-16T05:46:31.278Z,11.60
2022-11-16T05:48:33.248Z,11.60
2022-11-16T05:50:39.834Z,12.38
2022-11-16T05:52:44.198Z,11.63
2022-11-16T05:54:45.976Z,11.30
2022-11-16T05:56:49.338Z,10.53
2022-11-16T05:58:51.066Z,10.63
2022-11-16T06:00:52.826Z,10.57
2022-11-16T06:02:54.611Z,10.03
2022-11-16T06:04:56.372Z,9.70
2022-11-16T06:06:58.095Z,10.80
2022-11-16T06:08:59.879Z,10.50
2022-11-16T06:11:07.027Z,10.07
2022-11-16T06:13:08.718Z,10.25
2022-11-16T06:15:10.614Z,10.25
2022-11-16T06:17:14.570Z,9.63
2022-11-16T06:19:16.401Z,9.88
2022-11-16T06:21:19.350Z,10.63
2022-11-16T06:23:21.345Z,9.75
2022-11-16T06:25:23.056Z,9.77
2022-11-16T06:27:24.726Z,10.55
2022-11-16T06:29:26.424Z,10.32
2022-11-16T06:31:28.137Z,9.68
2022-11-16T06:33:33.586Z,10.57
2022-11-16T06:35:35.443Z,10.18
2022-11-16T06:37:37.277Z,11.05
2022-11-16T06:39:39.001Z,10.37
2022-11-16T06:41:41.646Z,10.82
2022-11-16T06:45:52.175Z,9.82
2022-11-16T06:47:53.836Z,10.85
2022-11-16T06:49:55.542Z,10.25
2022-11-16T06:51:57.273Z,10.48
2022-11-16T06:53:58.948Z,11.15
2022-11-16T06:56:02.939Z,12.18
2022-11-16T06:58:04.694Z,11.77
2022-11-16T07:00:08.489Z,11.40
2022-11-16T07:02:11.505Z,11.63
2022-11-16T07:04:15.922Z,10.80
2022-11-16T07:06:17.648Z,10.85
2022-11-16T07:08:19.392Z,10.10
2022-11-16T07:10:21.408Z,11.13
2022-11-16T07:12:23.241Z,11.50
2022-11-16T07:14:24.921Z,10.70
2022-11-16T07:16:27.034Z,11.27
2022-11-16T07:18:28.745Z,10.57
2022-11-16T07:20:30.501Z,10.52
2022-11-16T07:22:32.894Z,10.13
2022-11-16T07:24:34.663Z,10.77
2022-11-16T07:26:36.707Z,9.40
2022-11-16T07:28:40.990Z,10.05
2022-11-16T07:30:46.846Z,10.80
2022-11-16T07:32:48.591Z,10.23
2022-11-16T07:34:50.280Z,10.90
2022-11-16T07:36:52.002Z,9.80
2022-11-16T07:38:54.259Z,9.88
2022-11-16T07:41:00.426Z,10.02
2022-11-16T07:43:02.204Z,10.45
2022-11-16T07:45:04.208Z,10.50
2022-11-16T07:47:07.039Z,10.80
2022-11-16T07:49:13.915Z,10.80
2022-11-16T07:51:17.227Z,10.10
2022-11-16T07:53:18.986Z,10.80
2022-11-16T07:55:20.696Z,10.88
2022-11-16T07:57:22.417Z,10.05
2022-11-16T07:59:24.113Z,9.85
2022-11-16T08:01:25.857Z,10.63
2022-11-16T08:03:27.546Z,10.73
2022-11-16T08:05:29.330Z,10.35
2022-11-16T08:07:33.670Z,10.33
2022-11-16T08:09:37.831Z,9.05
2022-11-16T08:11:39.882Z,9.52
2022-11-16T08:13:42.305Z,10.68
2022-11-16T08:15:43.976Z,9.48
2022-11-16T08:17:45.801Z,9.95
2022-11-16T08:19:47.534Z,9.23
2022-11-16T08:21:49.231Z,10.30
2022-11-16T08:23:55.346Z,9.35
2022-11-16T08:26:09.453Z,9.02
2022-11-16T08:28:11.343Z,8.60
2022-11-16T08:30:13.494Z,9.23
2022-11-16T08:32:15.299Z,8.10
2022-11-16T08:34:16.986Z,9.10
2022-11-16T08:36:19.060Z,9.60
2022-11-16T08:38:21.432Z,9.43
2022-11-16T08:40:23.146Z,9.23
2022-11-16T08:42:24.904Z,8.85
2022-11-16T08:44:26.640Z,9.02
2022-11-16T08:46:28.617Z,9.20
2022-11-16T08:48:30.627Z,8.60
2022-11-16T08:50:44.200Z,8.15
2022-11-16T08:52:56.292Z,7.95
2022-11-16T08:54:57.980Z,7.95
2022-11-16T08:56:59.685Z,8.23
2022-11-16T08:59:01.426Z,8.60
2022-11-16T09:01:18.374Z,8.35
2022-11-16T09:03:20.150Z,8.70
2022-11-16T09:05:21.869Z,7.97
2022-11-16T09:07:23.679Z,8.10
2022-11-16T09:09:25.608Z,8.23
2022-11-16T09:11:27.690Z,9.23
2022-11-16T09:13:29.388Z,9.05
2022-11-16T09:15:31.769Z,8.70
2022-11-16T09:17:33.498Z,9.70
2022-11-16T09:19:35.206Z,8.57
2022-11-16T09:21:37.596Z,8.75
2022-11-16T09:23:39.368Z,8.27
2022-11-16T09:25:41.110Z,8.95
2022-11-16T09:27:42.817Z,8.02
2022-11-16T09:29:44.550Z,9.10
2022-11-16T09:31:46.283Z,8.88
2022-11-16T09:33:48.383Z,9.45
2022-11-16T09:35:50.088Z,8.45
2022-11-16T09:37:51.833Z,7.70
2022-11-16T09:39:53.616Z,7.93
2022-11-16T09:42:26.129Z,7.03
2022-11-16T09:44:37.880Z,7.03
2022-11-16T09:46:47.950Z,7.00
2022-11-16T09:48:50.911Z,6.43
2022-11-16T09:50:56.446Z,6.28
2022-11-16T09:53:22.975Z,6.30
2022-11-16T09:55:46.263Z,5.60
2022-11-16T09:59:54.657Z,5.55
2022-11-16T10:02:01.945Z,5.47
2022-11-16T10:04:28.273Z,5.32
2022-11-16T10:06:57.279Z,5.25
2022-11-16T10:08:59.016Z,5.47
2022-11-16T10:11:15.551Z,4.85
2022-11-16T10:13:32.349Z,4.13
2022-11-16T10:15:58.235Z,4.70
2022-11-16T10:18:31.499Z,6.05
2022-11-16T10:20:57.972Z,4.82
2022-11-16T10:23:26.736Z,4.53
2022-11-16T10:25:43.997Z,4.95
2022-11-16T10:27:50.293Z,4.35
2022-11-16T10:30:15.055Z,4.72
2022-11-16T10:32:18.885Z,4.63
2022-11-16T10:34:25.270Z,4.00
2022-11-16T10:36:29.475Z,4.85
2022-11-16T10:38:32.337Z,4.30
2022-11-16T10:40:38.499Z,4.18
2022-11-16T10:42:40.261Z,4.38
2022-11-16T10:44:50.190Z,4.68
2022-11-16T10:47:02.963Z,4.63
2022-11-16T10:49:40.257Z,4.95
2022-11-16T10:51:43.170Z,4.60
2022-11-16T10:53:44.999Z,5.05
2022-11-16T10:56:13.763Z,5.07
2022-11-16T10:58:15.509Z,5.60
2022-11-16T11:00:33.608Z,5.10
2022-11-16T11:02:36.637Z,5.30
2022-11-16T11:06:41.358Z,4.90
2022-11-16T11:08:43.075Z,4.53
2022-11-16T11:10:56.728Z,4.90
2022-11-16T11:13:08.068Z,4.32
2022-11-16T11:15:13.463Z,4.30
2022-11-16T11:17:17.989Z,4.75
2022-11-16T11:19:27.412Z,5.05
2022-11-16T11:21:29.158Z,5.13
2022-11-16T11:23:37.747Z,4.22
2022-11-16T11:25:48.421Z,4.55
2022-11-16T11:27:53.219Z,4.70
2022-11-16T11:29:58.623Z,4.45
2022-11-16T11:32:24.508Z,4.82
2022-11-16T11:34:29.748Z,4.28
2022-11-16T11:36:40.491Z,4.00
2022-11-16T11:39:03.378Z,6.97
2022-11-16T11:41:05.318Z,5.40
2022-11-16T11:43:22.746Z,5.23
2022-11-16T11:45:36.268Z,4.82
2022-11-16T11:48:01.275Z,4.22
2022-11-16T11:50:24.928Z,4.68
2022-11-16T11:52:37.730Z,4.13
2022-11-16T11:54:47.696Z,4.20
2022-11-16T11:56:49.501Z,4.93
2022-11-16T11:58:52.013Z,4.53
2022-11-16T12:01:02.879Z,4.80
2022-11-16T12:03:15.734Z,4.75
2022-11-16T12:05:51.440Z,4.60
2022-11-16T12:08:36.687Z,4.30
2022-11-16T12:10:47.760Z,4.20
2022-11-16T12:12:58.463Z,4.32
2022-11-16T12:15:23.843Z,3.83
2022-11-16T12:17:47.261Z,3.70
2022-11-16T12:20:07.855Z,3.97
2022-11-16T12:22:35.351Z,3.97
2022-11-16T12:24:43.780Z,4.18
2022-11-16T12:27:06.525Z,4.10
2022-11-16T12:29:24.830Z,4.63
2022-11-16T12:32:10.465Z,4.60
2022-11-16T12:34:39.573Z,4.30
2022-11-16T12:37:08.747Z,4.38
2022-11-16T12:39:29.108Z,3.80
2022-11-16T12:41:42.743Z,4.18
2022-11-16T12:44:11.873Z,3.70
2022-11-16T12:46:41.180Z,3.58
2022-11-16T12:49:07.716Z,3.45
2022-11-16T12:51:31.950Z,3.38
2022-11-16T12:53:52.257Z,4.00
2022-11-16T12:55:59.524Z,4.03
2022-11-16T12:58:19.731Z,3.50
2022-11-16T13:00:21.550Z,3.42
2022-11-16T13:02:48.954Z,3.20
2022-11-16T13:04:58.449Z,3.58
2022-11-16T13:07:12.475Z,3.70
2022-11-16T13:09:21.207Z,3.70
2022-11-16T13:11:33.905Z,3.67
2022-11-16T13:13:37.275Z,3.55
2022-11-16T13:15:41.857Z,4.13
2022-11-16T13:17:57.625Z,3.63
2022-11-16T13:20:15.187Z,3.42
2022-11-16T13:22:23.728Z,3.95
2022-11-16T13:24:55.461Z,3.78
2022-11-16T13:27:03.067Z,3.47
2022-11-16T13:29:19.143Z,3.50
2022-11-16T13:31:45.481Z,3.40
2022-11-16T13:33:51.361Z,3.25
2022-11-16T13:35:53.290Z,3.85
2022-11-16T13:37:55.073Z,3.22
2022-11-16T13:39:59.851Z,3.35
2022-11-16T13:42:12.996Z,3.63
2022-11-16T13:44:20.553Z,2.97
2022-11-16T13:46:54.286Z,2.75
2022-11-16T13:48:46.230Z,3.08
2022-11-16T13:50:52.025Z,3.20
2022-11-16T13:55:33.754Z,2.47
2022-11-16T13:57:35.912Z,2.60
2022-11-16T13:59:37.648Z,2.40
2022-11-16T14:01:59.897Z,2.53
2022-11-16T14:04:54.651Z,2.40
2022-11-16T14:06:58.189Z,1.80
2022-11-16T14:09:00.446Z,2.13
2022-11-16T14:11:02.258Z,2.20
2022-11-16T14:13:05.952Z,2.45
2022-11-16T14:15:20.754Z,2.30
2022-11-16T14:17:59.574Z,2.22
2022-11-16T14:20:01.389Z,2.58
2022-11-16T14:22:09.225Z,2.60
2022-11-16T14:24:36.815Z,3.47
2022-11-16T14:27:15.650Z,2.72
2022-11-16T14:29:46.240Z,3.13
2022-11-16T14:31:53.273Z,2.55
2022-11-16T14:33:58.633Z,2.78
2022-11-16T14:36:03.457Z,2.30
2022-11-16T14:38:15.802Z,2.33
2022-11-16T14:40:19.880Z,2.13
2022-11-16T14:42:29.869Z,1.95
2022-11-16T14:44:39.443Z,1.75
2022-11-16T14:46:41.999Z,1.83
2022-11-16T14:48:45.640Z,1.83
2022-11-16T14:51:08.035Z,2.17
2022-11-16T14:53:15.433Z,2.10
2022-11-16T14:55:25.713Z,1.77
2022-11-16T14:57:27.464Z,1.70
2022-11-16T14:59:30.332Z,1.70
2022-11-16T15:01:36.369Z,2.20
2022-11-16T15:03:54.713Z,1.52
2022-11-16T15:06:01.254Z,2.25
2022-11-16T15:08:13.496Z,1.80
2022-11-16T15:10:18.276Z,4.55
2022-11-16T15:12:42.944Z,5.45
2022-11-16T15:14:48.638Z,5.47
2022-11-16T15:16:52.545Z,6.10
2022-11-16T15:19:01.801Z,7.47
2022-11-16T15:21:03.768Z,7.40
2022-11-16T15:23:13.070Z,8.07
2022-11-16T15:25:35.422Z,7.65
2022-11-16T15:27:40.301Z,8.50
2022-11-16T15:29:42.241Z,11.68
2022-11-16T15:31:44.360Z,17.13
2022-11-16T15:33:46.615Z,14.93
2022-11-16T15:35:48.546Z,13.80
2022-11-16T15:38:19.948Z,11.93
2022-11-16T15:40:21.732Z,10.07
2022-11-16T15:42:25.683Z,9.60
2022-11-16T15:44:28.645Z,10.63
2022-11-16T15:46:33.944Z,10.15
2022-11-16T15:48:38.672Z,9.55
2022-11-16T15:50:40.854Z,9.20
2022-11-16T15:52:55.400Z,9.23
2022-11-16T15:55:05.858Z,8.30
2022-11-16T15:57:12.167Z,8.68
2022-11-16T15:59:26.300Z,7.75
2022-11-16T16:01:30.114Z,8.57
2022-11-16T16:03:34.880Z,9.48
2022-11-16T16:05:39.727Z,8.20
2022-11-16T16:07:43.132Z,11.02
2022-11-16T16:09:45.588Z,9.95
2022-11-16T16:11:47.786Z,10.05
2022-11-16T16:14:02.541Z,9.60
2022-11-16T16:16:26.116Z,8.93
2022-11-16T16:18:40.657Z,9.00
2022-11-16T16:20:48.145Z,8.50
2022-11-16T16:22:50.237Z,8.75
2022-11-16T16:24:52.569Z,8.15
2022-11-16T16:26:54.275Z,8.18
2022-11-16T16:28:56.028Z,7.45
2022-11-16T16:30:57.790Z,8.15
2022-11-16T16:32:59.816Z,7.83
2022-11-16T16:35:04.195Z,7.65
2022-11-16T16:37:05.920Z,8.63
2022-11-16T16:39:08.078Z,9.82
2022-11-16T16:41:23.799Z,9.40
2022-11-16T16:43:27.199Z,9.73
2022-11-16T16:47:40.625Z,9.95
2022-11-16T16:49:42.418Z,10.57
2022-11-16T16:51:44.133Z,10.40
2022-11-16T16:53:45.998Z,9.30
2022-11-16T16:55:48.943Z,9.73
2022-11-16T16:57:51.008Z,8.23
2022-11-16T16:59:52.839Z,9.05
2022-11-16T17:01:54.563Z,9.07
2022-11-16T17:03:56.673Z,8.52
2022-11-16T17:06:02.191Z,9.70
2022-11-16T17:08:04.197Z,10.00
2022-11-16T17:10:06.300Z,10.15
2022-11-16T17:12:08.074Z,9.93
2022-11-16T17:14:10.053Z,10.10
2022-11-16T17:16:11.929Z,9.75
2022-11-16T17:18:13.736Z,10.27
2022-11-16T17:20:16.405Z,10.00
2022-11-16T17:24:20.724Z,10.03
2022-11-16T17:26:23.017Z,10.00
2022-11-16T17:28:24.743Z,9.45
2022-11-16T17:30:26.589Z,10.80
2022-11-16T17:32:28.338Z,10.90
2022-11-16T17:34:31.280Z,9.57
2022-11-16T17:36:32.994Z,9.20
2022-11-16T17:38:35.136Z,9.60
2022-11-16T17:40:36.962Z,10.13
2022-11-16T17:42:38.818Z,9.00
2022-11-16T17:44:40.852Z,9.87
2022-11-16T17:46:42.714Z,10.15
2022-11-16T17:48:46.145Z,9.52
2022-11-16T17:50:48.436Z,9.73
2022-11-16T17:52:50.289Z,10.68
2022-11-16T17:54:52.088Z,11.87
2022-11-16T17:56:53.897Z,12.33
2022-11-16T17:58:58.405Z,13.00
2022-11-16T18:01:00.600Z,12.25
2022-11-16T18:03:02.563Z,12.88
2022-11-16T18:05:04.479Z,13.80
2022-11-16T18:07:06.267Z,12.18
2022-11-16T18:09:08.012Z,12.70
2022-11-16T18:11:10.878Z,12.25
2022-11-16T18:13:12.733Z,12.85
2022-11-16T18:15:27.863Z,13.60
2022-11-16T18:17:31.461Z,14.68
2022-11-16T18:19:33.269Z,15.15
2022-11-16T18:21:42.361Z,16.37
2022-11-16T18:23:44.168Z,15.20
2022-11-16T18:25:45.964Z,15.90
2022-11-16T18:27:52.164Z,14.03
2022-11-16T18:29:54.168Z,14.23
2022-11-16T18:31:55.948Z,14.35
2022-11-16T18:33:57.786Z,14.40
2022-11-16T18:35:59.727Z,14.63
2022-11-16T18:38:02.160Z,15.73
2022-11-16T18:40:04.789Z,15.35
2022-11-16T18:44:11.409Z,14.68
2022-11-16T18:46:13.199Z,15.40
2022-11-16T18:48:15.220Z,17.17
2022-11-16T18:50:22.648Z,15.18
2022-11-16T18:52:29.468Z,15.63
2022-11-16T18:54:31.473Z,14.93
2022-11-16T18:56:34.814Z,13.63
2022-11-16T18:58:52.979Z,12.95
2022-11-16T19:00:55.208Z,13.20
2022-11-16T19:02:56.968Z,12.90
2022-11-16T19:04:58.671Z,12.38
2022-11-16T19:07:00.513Z,13.57
2022-11-16T19:09:04.507Z,13.50
2022-11-16T19:11:08.173Z,15.77
2022-11-16T19:13:09.866Z,15.95
2022-11-16T19:15:11.604Z,16.13
2022-11-16T19:17:13.377Z,14.60
2022-11-16T19:19:15.137Z,14.50
2022-11-16T19:21:21.761Z,12.83
2022-11-16T19:23:23.648Z,13.25
2022-11-16T19:25:26.301Z,13.38
2022-11-16T19:29:29.773Z,12.32
2022-11-16T19:31:32.637Z,12.83
2022-11-16T19:33:34.988Z,12.88
2022-11-16T19:35:38.095Z,11.30
2022-11-16T19:37:39.794Z,11.50
2022-11-16T19:39:41.604Z,11.15
2022-11-16T19:41:43.279Z,10.80
2022-11-16T19:43:44.961Z,10.63
2022-11-16T19:45:47.078Z,10.15
2022-11-16T19:47:49.455Z,10.45
2022-11-16T19:49:51.214Z,9.65
2022-11-16T19:51:52.966Z,9.17
2022-11-16T19:53:55.241Z,9.53
2022-11-16T19:55:56.963Z,8.68
2022-11-16T19:57:58.729Z,9.70
2022-11-16T20:00:00.511Z,9.47
2022-11-16T20:02:02.282Z,8.50
2022-11-16T20:04:04.613Z,8.10
2022-11-16T20:06:21.217Z,9.43
2022-11-16T20:08:22.994Z,9.35
2022-11-16T20:10:24.697Z,9.05
2022-11-16T20:12:26.723Z,9.02
2022-11-16T20:14:28.495Z,8.57
2022-11-16T20:16:38.321Z,8.15
2022-11-16T20:18:42.091Z,8.07
2022-11-16T20:20:43.894Z,9.00
2022-11-16T20:22:47.498Z,8.23
2022-11-16T20:24:49.372Z,8.07
2022-11-16T20:26:51.176Z,8.23
2022-11-16T20:28:53.417Z,8.37
2022-11-16T20:30:55.197Z,7.63
2022-11-16T20:32:57.082Z,7.80
2022-11-16T20:34:58.823Z,7.60
2022-11-16T20:37:00.511Z,7.47
2022-11-16T20:39:02.297Z,8.02
2022-11-16T20:41:14.769Z,7.77
2022-11-16T20:43:16.461Z,7.35
2022-11-16T20:45:18.184Z,7.35
2022-11-16T20:47:19.976Z,7.60
2022-11-16T20:49:21.788Z,7.30
2022-11-16T20:51:24.018Z,7.10
2022-11-16T20:53:26.651Z,7.05
2022-11-16T20:57:30.040Z,6.57
2022-11-16T20:59:31.931Z,6.77
2022-11-16T21:01:33.775Z,7.38
2022-11-16T21:03:35.969Z,6.95
2022-11-16T21:05:45.836Z,7.88
2022-11-16T21:07:47.579Z,7.40
2022-11-16T21:10:12.534Z,7.53
2022-11-16T21:12:42.802Z,7.55
2022-11-16T21:14:44.739Z,6.82
2022-11-16T21:16:46.609Z,7.23
2022-11-16T21:18:48.295Z,6.55
2022-11-16T21:20:57.468Z,6.85
2022-11-16T21:22:59.208Z,6.22
2022-11-16T21:25:01.029Z,6.90
2022-11-16T21:27:02.708Z,8.77
2022-11-16T21:29:05.295Z,7.65
2022-11-16T21:33:11.329Z,6.60
2022-11-16T21:35:13.151Z,7.25
2022-11-16T21:37:14.859Z,7.27
2022-11-16T21:39:16.585Z,8.32
2022-11-16T21:41:19.834Z,8.03
2022-11-16T21:43:21.574Z,7.75
2022-11-16T21:45:23.302Z,8.10
2022-11-16T21:47:25.073Z,7.70
2022-11-16T21:49:26.853Z,7.03
2022-11-16T21:51:28.605Z,7.77
2022-11-16T21:53:30.662Z,7.63
2022-11-16T21:55:33.266Z,8.00
2022-11-16T21:59:36.689Z,8.20
2022-11-16T22:01:58.409Z,8.93
2022-11-16T22:04:18.909Z,9.98
2022-11-16T22:06:39.096Z,11.15
2022-11-16T22:08:41.616Z,11.85
2022-11-16T22:10:48.784Z,13.10
2022-11-16T22:12:50.501Z,13.27
2022-11-16T22:14:52.271Z,12.93
2022-11-16T22:16:54.019Z,11.53
2022-11-16T22:18:55.732Z,10.82
2022-11-16T22:20:57.433Z,10.93
2022-11-16T22:22:59.114Z,9.88
2022-11-16T22:25:00.887Z,10.07
2022-11-16T22:27:02.712Z,10.73
2022-11-16T22:29:04.389Z,9.17
2022-11-16T22:31:09.423Z,8.05
2022-11-16T22:33:11.134Z,8.00
2022-11-16T22:35:12.873Z,7.87
2022-11-16T22:37:14.750Z,7.83
2022-11-16T22:39:16.460Z,8.23
2022-11-16T22:41:18.339Z,7.60
2022-11-16T22:43:21.541Z,7.75
2022-11-16T22:45:23.815Z,7.30
2022-11-16T22:47:25.517Z,7.82
2022-11-16T22:49:27.292Z,7.22
2022-11-16T22:51:30.298Z,6.93
2022-11-16T22:53:32.375Z,6.80
2022-11-16T22:55:38.506Z,7.35
2022-11-16T22:57:40.245Z,6.45
2022-11-16T22:59:41.960Z,7.03
2022-11-16T23:01:43.651Z,6.87
2022-11-16T23:03:45.430Z,6.97
2022-11-16T23:05:47.183Z,6.97
2022-11-16T23:07:48.917Z,6.63
2022-11-16T23:09:50.613Z,7.37
2022-11-16T23:12:11.125Z,7.25
2022-11-16T23:14:34.105Z,6.82
2022-11-16T23:16:36.170Z,6.30
2022-11-16T23:18:37.885Z,6.35
2022-11-16T23:20:58.005Z,7.87
2022-11-16T23:23:18.129Z,6.75
2022-11-16T23:25:38.402Z,6.63
2022-11-16T23:27:42.553Z,6.78
2022-11-16T23:29:44.294Z,6.90
2022-11-16T23:31:46.046Z,6.40
2022-11-16T23:33:47.824Z,6.20
2022-11-16T23:35:49.597Z,6.50
2022-11-16T23:37:54.168Z,6.20
2022-11-16T23:39:55.898Z,5.75
2022-11-16T23:42:16.294Z,5.70
2022-11-16T23:44:17.997Z,5.35
2022-11-16T23:46:19.734Z,5.47
2022-11-16T23:48:21.414Z,5.85
2022-11-16T23:50:23.270Z,5.20
2022-11-16T23:52:24.944Z,5.10
2022-11-16T23:54:26.705Z,5.85
2022-11-16T23:56:28.812Z,5.20
2022-11-16T23:58:30.498Z,5.00
